Portada
METAR-TAF:

METAR-TAF

Aeroports :

Ranchi, Índia

latitud: 23-18-51N, longitud: 85-19-18E, altitud: 646 m

Observació

L'informe es va fer fa 8 minuts, a les 01:30 UTC
Vent calma
Temperatura 12°C
Humitat 76%
Pressió 1014 hPa
Visibilitat: 3000 m
Núvols disperses a una alçada de 10000 ft
calitja

METAR: VERC 280130Z 00000KT 3000 HZ SCT100 12/08 Q1014 NOSIG

Hora: 07:08 (01:38 UTC)

Pronòstic

L'informe es va fer fa 2 hores i 38 minuts, a les 23:00 UTC
Pronòstic vàlid del 28 a les 00 UTC al 28 a les 09 UTC
Vent kt del Nord
Visibilitat: 2000 m
Escasses núvols a una alçada de 2000 ft
Núvols disperses a una alçada de 10000 ft
boirina, calitja
Evolucionant progressivament
l' 28 a les 03 UTC al 28 a les 05 UTC
Vent 4 kt del Sud-Oest
Visibilitat: 3000 m
Boira superficial, boirina
Evolucionant progressivament
l' 28 a les 07 UTC al 28 a les 09 UTC
Visibilitat: 5000 m
calitja

TAF: VERC 272300Z 2800/2809 00000KT 2000 BR HZ FEW020 SCT100 BECMG 2803/2805 23004KT 3000 MIFG BR BECMG 2807/2809 5000 HZ

Observacions i pronòstics meteorològics de més de 4000 aeroports (METAR i TAF).

Les estacions disponibles són els punts grocs i vermells al mapa.

Posi el ratolí al punt desitjat per veure el nom de l'estació.

Feu clic per veure les observacions i els pronòstics meteorològics.

Per canviar el mapa: feu clic els botons verds amb una creu de color negre per apropar; al botó verd amb un guió per allunyar la imatge; o en les fletxes verdes per a mapes adjacents.


METAR-TAF: